createdAt,value
2018-07-14T00:00:25.413Z,63.20
2018-07-14T00:00:56.588Z,63.27
2018-07-14T00:01:27.773Z,63.73
2018-07-14T00:01:59.027Z,63.99
2018-07-14T00:02:30.227Z,63.70
2018-07-14T00:03:01.409Z,63.52
2018-07-14T00:03:33.952Z,63.83
2018-07-14T00:04:05.133Z,63.77
2018-07-14T00:04:36.328Z,63.92
2018-07-14T00:05:07.610Z,64.14
2018-07-14T00:05:38.803Z,64.01
2018-07-14T00:06:10.061Z,64.69
2018-07-14T00:06:41.236Z,64.73
2018-07-14T00:07:12.411Z,64.86
2018-07-14T00:07:43.637Z,64.39
2018-07-14T00:08:14.824Z,65.10
2018-07-14T00:08:46.000Z,64.55
2018-07-14T00:09:17.172Z,64.63
2018-07-14T00:09:48.349Z,65.21
2018-07-14T00:10:19.586Z,64.87
2018-07-14T00:10:50.764Z,65.59
2018-07-14T00:11:21.978Z,65.35
2018-07-14T00:11:53.145Z,64.74
2018-07-14T00:12:24.348Z,65.72
2018-07-14T00:12:55.609Z,65.51
2018-07-14T00:13:26.854Z,65.88
2018-07-14T00:13:58.061Z,65.15
2018-07-14T00:14:29.237Z,65.62
2018-07-14T00:15:00.436Z,65.65
2018-07-14T00:15:31.661Z,66.09
2018-07-14T00:16:02.901Z,65.41
2018-07-14T00:16:34.128Z,65.67
2018-07-14T00:17:05.425Z,66.24
2018-07-14T00:17:36.616Z,66.29
2018-07-14T00:18:07.792Z,66.22
2018-07-14T00:18:39.070Z,66.08
2018-07-14T00:19:10.256Z,65.94
2018-07-14T00:19:41.484Z,65.68
2018-07-14T00:21:08.986Z,66.38
2018-07-14T00:21:40.160Z,66.50
2018-07-14T00:22:11.360Z,66.16
2018-07-14T00:22:42.653Z,66.17
2018-07-14T00:23:15.916Z,66.88
2018-07-14T00:23:47.132Z,66.24
2018-07-14T00:24:18.444Z,66.36
2018-07-14T00:24:49.677Z,67.08
2018-07-14T00:25:20.857Z,67.04
2018-07-14T00:25:52.125Z,66.68
2018-07-14T00:26:23.352Z,67.43
2018-07-14T00:26:54.630Z,66.66
2018-07-14T00:27:27.125Z,67.01
2018-07-14T00:27:58.304Z,67.11
2018-07-14T00:28:29.480Z,66.85
2018-07-14T00:29:00.705Z,66.94
2018-07-14T00:29:31.934Z,67.31
2018-07-14T00:30:05.889Z,66.56
2018-07-14T00:30:37.129Z,67.61
2018-07-14T00:31:47.185Z,67.33
2018-07-14T00:32:18.410Z,66.60
2018-07-14T00:32:49.592Z,67.18
2018-07-14T00:33:20.771Z,67.15
2018-07-14T00:33:51.997Z,66.95
2018-07-14T00:34:23.482Z,67.25
2018-07-14T00:34:54.688Z,66.79
2018-07-14T00:35:25.913Z,67.17
2018-07-14T00:35:57.150Z,66.70
2018-07-14T00:36:28.369Z,66.64
2018-07-14T00:36:59.592Z,67.32
2018-07-14T00:37:30.826Z,66.37
2018-07-14T00:38:02.064Z,66.88
2018-07-14T00:38:33.345Z,66.32
2018-07-14T00:39:04.590Z,66.83
2018-07-14T00:39:35.817Z,66.91
2018-07-14T00:40:07.042Z,66.81
2018-07-14T00:40:38.216Z,66.55
2018-07-14T00:41:09.396Z,66.07
2018-07-14T00:41:40.625Z,66.61
2018-07-14T00:42:11.816Z,66.25
2018-07-14T00:42:43.006Z,67.13
2018-07-14T00:43:15.445Z,67.16
2018-07-14T00:43:46.680Z,66.68
2018-07-14T00:44:17.868Z,67.06
2018-07-14T00:44:49.068Z,66.75
2018-07-14T00:45:20.240Z,67.38
2018-07-14T00:45:51.360Z,67.38
2018-07-14T00:46:22.486Z,66.95
2018-07-14T00:46:53.614Z,66.84
2018-07-14T00:47:24.754Z,67.21
2018-07-14T00:47:56.408Z,66.51
2018-07-14T00:48:27.519Z,66.95
2018-07-14T00:48:58.633Z,66.46
2018-07-14T00:49:29.743Z,66.97
2018-07-14T00:50:00.929Z,67.01
2018-07-14T00:50:32.965Z,67.06
2018-07-14T00:51:04.143Z,66.88
2018-07-14T00:51:35.361Z,66.55
2018-07-14T00:52:06.588Z,66.21
2018-07-14T00:52:37.767Z,65.52
2018-07-14T00:53:09.236Z,65.57
2018-07-14T00:53:40.462Z,65.79
2018-07-14T00:54:11.716Z,66.03
2018-07-14T00:54:42.923Z,65.90
2018-07-14T00:55:14.152Z,65.94
2018-07-14T00:55:45.343Z,65.86
2018-07-14T00:56:16.513Z,65.21
2018-07-14T00:56:48.436Z,65.29
2018-07-14T00:57:19.604Z,64.80
2018-07-14T00:57:50.833Z,64.79
2018-07-14T00:58:22.017Z,64.83
2018-07-14T00:58:54.312Z,65.43
2018-07-14T00:59:25.680Z,64.31
2018-07-14T01:00:04.273Z,64.50
2018-07-14T01:00:35.499Z,64.40
2018-07-14T01:01:06.679Z,64.87
2018-07-14T01:01:37.947Z,65.08
2018-07-14T01:02:09.135Z,64.50
2018-07-14T01:02:40.312Z,64.68
2018-07-14T01:03:12.346Z,65.06
2018-07-14T01:03:43.521Z,64.59
2018-07-14T01:04:14.702Z,64.83
2018-07-14T01:04:45.951Z,64.61
2018-07-14T01:05:17.181Z,65.25
2018-07-14T01:05:48.408Z,64.89
2018-07-14T01:06:19.594Z,65.08
2018-07-14T01:06:50.835Z,64.54
2018-07-14T01:07:22.053Z,64.30
2018-07-14T01:07:53.234Z,64.66
2018-07-14T01:08:24.462Z,64.29
2018-07-14T01:08:55.640Z,64.37
2018-07-14T01:09:26.873Z,64.50
2018-07-14T01:09:58.100Z,64.24
2018-07-14T01:10:29.373Z,65.02
2018-07-14T01:11:00.605Z,64.19
2018-07-14T01:11:31.788Z,65.08
2018-07-14T01:12:03.002Z,65.02
2018-07-14T01:12:34.184Z,64.50
2018-07-14T01:13:05.362Z,64.60
2018-07-14T01:13:36.532Z,64.72
2018-07-14T01:14:07.738Z,64.75
2018-07-14T01:14:38.977Z,65.45
2018-07-14T01:15:10.794Z,65.02
2018-07-14T01:15:42.010Z,64.67
2018-07-14T01:16:13.237Z,65.36
2018-07-14T01:16:44.416Z,64.81
2018-07-14T01:17:15.650Z,64.74
2018-07-14T01:17:47.040Z,65.63
2018-07-14T01:18:18.147Z,65.21
2018-07-14T01:18:49.316Z,65.82
2018-07-14T01:19:21.653Z,65.33
2018-07-14T01:19:52.844Z,65.34
2018-07-14T01:20:24.025Z,65.54
2018-07-14T01:20:56.295Z,66.09
2018-07-14T01:21:27.546Z,65.33
2018-07-14T01:21:58.729Z,65.21
2018-07-14T01:22:29.932Z,65.24
2018-07-14T01:23:01.153Z,64.82
2018-07-14T01:23:32.390Z,65.37
2018-07-14T01:24:03.572Z,64.94
2018-07-14T01:24:34.777Z,65.59
2018-07-14T01:25:06.009Z,64.84
2018-07-14T01:25:37.184Z,65.55
2018-07-14T01:26:08.357Z,65.35
2018-07-14T01:26:39.578Z,64.92
2018-07-14T01:27:10.833Z,64.39
2018-07-14T01:27:42.062Z,64.33
2018-07-14T01:28:13.266Z,64.27
2018-07-14T01:28:44.507Z,64.90
2018-07-14T01:29:15.723Z,64.34
2018-07-14T01:29:46.993Z,64.66
2018-07-14T01:30:18.180Z,63.87
2018-07-14T01:30:49.349Z,63.73
2018-07-14T01:31:20.524Z,63.71
2018-07-14T01:31:51.749Z,63.60
2018-07-14T01:32:22.942Z,64.26
2018-07-14T01:32:54.117Z,63.56
2018-07-14T01:33:25.345Z,63.06
2018-07-14T01:33:56.620Z,63.15
2018-07-14T01:34:27.865Z,63.18
2018-07-14T01:34:59.096Z,63.58
2018-07-14T01:35:30.285Z,63.77
2018-07-14T01:36:01.514Z,63.33
2018-07-14T01:36:32.697Z,63.49
2018-07-14T01:37:03.886Z,63.44
2018-07-14T01:37:35.106Z,63.37
2018-07-14T01:38:06.288Z,64.23
2018-07-14T01:38:37.513Z,64.18
2018-07-14T01:39:08.733Z,63.59
2018-07-14T01:39:39.900Z,63.48
2018-07-14T01:40:11.074Z,63.58
2018-07-14T01:40:42.401Z,63.70
2018-07-14T01:41:13.529Z,64.14
2018-07-14T01:41:44.763Z,64.11
2018-07-14T01:42:16.008Z,64.05
2018-07-14T01:42:47.211Z,63.30
2018-07-14T01:43:18.434Z,64.01
2018-07-14T01:43:49.684Z,63.33
2018-07-14T01:44:20.860Z,63.34
2018-07-14T01:44:52.029Z,63.43
2018-07-14T01:45:23.196Z,63.01
2018-07-14T01:45:54.371Z,62.95
2018-07-14T01:46:25.553Z,63.33
2018-07-14T01:46:56.743Z,63.19
2018-07-14T01:47:27.969Z,63.25
2018-07-14T01:47:59.241Z,63.48
2018-07-14T01:48:30.483Z,63.23
2018-07-14T01:49:01.724Z,62.97
2018-07-14T01:49:32.904Z,62.71
2018-07-14T01:50:04.083Z,62.74
2018-07-14T01:50:35.260Z,63.04
2018-07-14T01:51:06.443Z,62.77
2018-07-14T01:51:37.624Z,62.22
2018-07-14T01:52:08.852Z,62.82
2018-07-14T01:52:40.121Z,62.94
2018-07-14T01:53:11.373Z,62.06
2018-07-14T01:53:42.552Z,62.10
2018-07-14T01:54:14.735Z,62.76
2018-07-14T01:54:46.020Z,62.04
2018-07-14T01:55:17.788Z,62.20
2018-07-14T01:55:48.965Z,62.56
2018-07-14T01:56:20.197Z,62.52
2018-07-14T01:56:51.423Z,62.92
2018-07-14T01:57:22.600Z,62.47
2018-07-14T01:57:53.829Z,62.69
2018-07-14T01:58:25.335Z,62.85
2018-07-14T01:58:56.529Z,62.85
2018-07-14T01:59:27.751Z,62.78
2018-07-14T01:59:58.933Z,62.50
2018-07-14T02:00:30.134Z,62.96
2018-07-14T02:01:01.385Z,62.17
2018-07-14T02:01:32.613Z,61.82
2018-07-14T02:02:03.797Z,62.67
2018-07-14T02:02:34.972Z,61.90
2018-07-14T02:03:07.396Z,62.21
2018-07-14T02:03:38.568Z,61.98
2018-07-14T02:04:09.796Z,62.72
2018-07-14T02:04:41.587Z,61.94
2018-07-14T02:05:14.868Z,61.94
2018-07-14T02:05:46.120Z,62.66
2018-07-14T02:06:17.393Z,62.54
2018-07-14T02:06:48.573Z,62.61
2018-07-14T02:07:20.368Z,62.00
2018-07-14T02:07:51.589Z,62.50
2018-07-14T02:08:22.811Z,62.03
2018-07-14T02:08:54.001Z,61.76
2018-07-14T02:09:25.192Z,62.54
2018-07-14T02:09:56.460Z,61.87
2018-07-14T02:10:27.666Z,61.44
2018-07-14T02:10:58.854Z,61.56
2018-07-14T02:11:30.286Z,61.49
2018-07-14T02:12:01.555Z,61.90
2018-07-14T02:12:32.735Z,61.54
2018-07-14T02:13:03.917Z,61.59
2018-07-14T02:13:35.159Z,62.11
2018-07-14T02:14:06.348Z,61.59
2018-07-14T02:14:37.636Z,62.15
2018-07-14T02:15:08.824Z,62.03
2018-07-14T02:15:40.069Z,62.41
2018-07-14T02:16:11.249Z,62.43
2018-07-14T02:16:42.426Z,61.80
2018-07-14T02:17:13.598Z,61.76
2018-07-14T02:17:44.808Z,62.30
2018-07-14T02:18:15.981Z,62.59
2018-07-14T02:18:47.194Z,61.93
2018-07-14T02:19:18.433Z,61.98
2018-07-14T02:19:49.608Z,62.07
2018-07-14T02:20:20.744Z,61.81
2018-07-14T02:20:51.859Z,62.00
2018-07-14T02:21:22.967Z,62.18
2018-07-14T02:21:54.080Z,61.57
2018-07-14T02:22:25.206Z,62.28
2018-07-14T02:22:56.361Z,61.70
2018-07-14T02:23:27.530Z,61.47
2018-07-14T02:23:58.712Z,61.48
2018-07-14T02:24:29.863Z,62.08
2018-07-14T02:25:01.032Z,61.91
2018-07-14T02:25:32.152Z,61.38
2018-07-14T02:26:03.260Z,61.28
2018-07-14T02:26:34.388Z,61.31
2018-07-14T02:27:06.212Z,61.22
2018-07-14T02:27:37.415Z,60.88
2018-07-14T02:28:08.526Z,61.00
2018-07-14T02:28:39.656Z,60.66
2018-07-14T02:29:10.834Z,61.20
2018-07-14T02:29:41.954Z,60.72
2018-07-14T02:30:13.098Z,60.66
2018-07-14T02:30:44.265Z,60.84
2018-07-14T02:31:15.386Z,60.40
2018-07-14T02:31:46.508Z,61.37
2018-07-14T02:32:17.785Z,60.28
2018-07-14T02:32:49.010Z,60.25
2018-07-14T02:33:20.846Z,61.08
2018-07-14T02:33:52.017Z,60.72
2018-07-14T02:34:23.253Z,61.16
2018-07-14T02:34:57.313Z,60.76
2018-07-14T02:35:28.551Z,60.40
2018-07-14T02:35:59.737Z,60.23
2018-07-14T02:36:30.977Z,61.01
2018-07-14T02:37:02.209Z,60.92
2018-07-14T02:37:33.501Z,61.16
2018-07-14T02:38:04.680Z,61.19
2018-07-14T02:38:35.871Z,61.20
2018-07-14T02:39:07.641Z,61.07
2018-07-14T02:39:38.833Z,61.56
2018-07-14T02:40:10.001Z,61.20
2018-07-14T02:40:41.206Z,61.33
2018-07-14T02:41:12.482Z,61.52
2018-07-14T02:41:43.772Z,61.92
2018-07-14T02:42:14.986Z,61.45
2018-07-14T02:42:46.149Z,61.92
2018-07-14T02:43:17.317Z,62.44
2018-07-14T02:43:48.494Z,61.59
2018-07-14T02:44:19.677Z,61.86
2018-07-14T02:44:50.868Z,61.54
2018-07-14T02:45:22.040Z,61.55
2018-07-14T02:45:53.228Z,62.09
2018-07-14T02:46:24.438Z,62.20
2018-07-14T02:46:57.818Z,61.47
2018-07-14T02:47:28.990Z,61.61
2018-07-14T02:48:00.164Z,61.52
2018-07-14T02:48:31.392Z,61.83
2018-07-14T02:49:02.644Z,62.01
2018-07-14T02:49:33.879Z,61.95
2018-07-14T02:50:05.127Z,62.10
2018-07-14T02:50:36.311Z,61.17
2018-07-14T02:51:07.537Z,61.94
2018-07-14T02:51:38.813Z,62.02
2018-07-14T02:52:10.045Z,62.17
2018-07-14T02:52:41.314Z,62.22
2018-07-14T02:53:12.488Z,61.53
2018-07-14T02:53:43.663Z,62.12
2018-07-14T02:54:14.897Z,61.98
2018-07-14T02:54:46.081Z,61.83
2018-07-14T02:55:17.257Z,61.77
2018-07-14T02:55:48.428Z,61.93
2018-07-14T02:56:19.613Z,61.10
2018-07-14T02:56:50.834Z,61.03
2018-07-14T02:57:22.007Z,61.92
2018-07-14T02:57:53.179Z,61.40
2018-07-14T02:58:24.401Z,61.96
2018-07-14T02:58:55.581Z,61.46
2018-07-14T02:59:26.769Z,61.31
2018-07-14T02:59:57.963Z,62.01
2018-07-14T03:00:29.148Z,62.26
2018-07-14T03:01:00.326Z,62.10
2018-07-14T03:01:35.940Z,61.99
2018-07-14T03:02:08.082Z,60.98
2018-07-14T03:02:39.268Z,61.12
2018-07-14T03:03:12.199Z,61.34
2018-07-14T03:03:43.433Z,60.95
2018-07-14T03:04:14.636Z,61.85
2018-07-14T03:04:45.821Z,61.53
2018-07-14T03:05:19.884Z,61.03
2018-07-14T03:05:51.071Z,60.93
2018-07-14T03:06:22.260Z,61.38
2018-07-14T03:06:53.489Z,60.96
2018-07-14T03:07:24.753Z,60.94
2018-07-14T03:07:55.937Z,60.75
2018-07-14T03:08:27.165Z,60.50
2018-07-14T03:08:58.424Z,60.65
2018-07-14T03:09:29.615Z,61.08
2018-07-14T03:10:00.837Z,60.76
2018-07-14T03:10:32.017Z,59.61
2018-07-14T03:11:03.202Z,59.93
2018-07-14T03:11:34.443Z,60.31
2018-07-14T03:12:05.625Z,59.43
2018-07-14T03:12:36.804Z,59.54
2018-07-14T03:13:08.041Z,59.86
2018-07-14T03:13:39.217Z,59.33
2018-07-14T03:14:10.397Z,59.34
2018-07-14T03:14:41.568Z,58.68
2018-07-14T03:15:12.796Z,58.63
2018-07-14T03:15:43.976Z,58.96
2018-07-14T03:16:15.188Z,58.38
2018-07-14T03:16:46.394Z,57.89
2018-07-14T03:17:17.584Z,58.26
2018-07-14T03:17:49.336Z,57.35
2018-07-14T03:18:20.506Z,58.14
2018-07-14T03:18:51.679Z,57.42
2018-07-14T03:19:22.910Z,57.72
2018-07-14T03:19:54.107Z,57.58
2018-07-14T03:20:25.288Z,57.40
2018-07-14T03:20:56.509Z,56.76
2018-07-14T03:21:27.689Z,56.92
2018-07-14T03:21:58.957Z,57.33
2018-07-14T03:22:30.190Z,57.18
2018-07-14T03:23:01.435Z,56.55
2018-07-14T03:23:32.613Z,56.62
2018-07-14T03:24:03.778Z,55.91
2018-07-14T03:24:35.005Z,55.63
2018-07-14T03:25:06.188Z,56.18
2018-07-14T03:25:37.413Z,55.11
2018-07-14T03:26:08.589Z,54.62
2018-07-14T03:26:39.817Z,54.40
2018-07-14T03:27:11.028Z,54.72
2018-07-14T03:27:42.213Z,54.47
2018-07-14T03:28:13.715Z,53.85
2018-07-14T03:28:44.936Z,53.19
2018-07-14T03:29:16.144Z,52.90
2018-07-14T03:29:47.361Z,53.03
2018-07-14T03:30:18.602Z,53.36
2018-07-14T03:30:49.785Z,52.59
2018-07-14T03:31:20.972Z,52.66
2018-07-14T03:31:52.201Z,52.35
2018-07-14T03:32:23.436Z,51.78
2018-07-14T03:32:54.667Z,51.87
2018-07-14T03:33:25.914Z,52.03
2018-07-14T03:33:57.104Z,52.15
2018-07-14T03:34:28.288Z,51.37
2018-07-14T03:34:59.493Z,51.27
2018-07-14T03:35:30.691Z,51.85
2018-07-14T03:36:01.873Z,50.94
2018-07-14T03:36:33.120Z,50.38
2018-07-14T03:37:04.270Z,50.91
2018-07-14T03:37:35.477Z,51.31
2018-07-14T03:38:06.668Z,50.40
2018-07-14T03:38:37.896Z,49.96
2018-07-14T03:39:09.125Z,50.13
2018-07-14T03:39:40.344Z,50.25
2018-07-14T03:40:11.530Z,50.31
2018-07-14T03:40:43.585Z,49.12
2018-07-14T03:41:14.825Z,50.32
2018-07-14T03:41:46.071Z,49.90
2018-07-14T03:42:17.341Z,49.15
2018-07-14T03:42:48.545Z,49.65
2018-07-14T03:43:19.724Z,49.27
2018-07-14T03:43:50.908Z,49.19
2018-07-14T03:44:23.095Z,48.80
2018-07-14T03:44:55.293Z,48.45
2018-07-14T03:45:26.580Z,48.89
2018-07-14T03:45:57.769Z,48.14
2018-07-14T03:46:28.949Z,48.62
2018-07-14T03:47:00.131Z,49.00
2018-07-14T03:47:31.310Z,49.12
2018-07-14T03:48:02.541Z,48.21
2018-07-14T03:48:33.772Z,48.53
2018-07-14T03:49:04.949Z,48.39
2018-07-14T03:49:36.129Z,48.29
2018-07-14T03:50:07.317Z,48.85
2018-07-14T03:50:38.545Z,47.61
2018-07-14T03:51:09.830Z,47.66
2018-07-14T03:51:41.057Z,48.93
2018-07-14T03:52:12.244Z,48.27
2018-07-14T03:52:43.440Z,47.90
2018-07-14T03:53:14.685Z,48.85
2018-07-14T03:53:45.873Z,47.85
2018-07-14T03:54:17.092Z,48.20
2018-07-14T03:54:48.321Z,48.10
2018-07-14T03:55:19.505Z,47.76
2018-07-14T03:55:50.750Z,47.48
2018-07-14T03:56:21.996Z,46.71
2018-07-14T03:56:53.300Z,47.72
2018-07-14T03:57:24.482Z,46.82
2018-07-14T03:57:55.662Z,46.94
2018-07-14T03:58:26.845Z,47.09
2018-07-14T03:58:58.085Z,47.54
2018-07-14T03:59:29.272Z,47.00
2018-07-14T04:00:00.497Z,47.03
2018-07-14T04:00:31.741Z,45.85
2018-07-14T04:01:02.936Z,45.14
2018-07-14T04:01:34.123Z,45.37
2018-07-14T04:02:06.201Z,45.80
2018-07-14T04:02:37.431Z,45.25
2018-07-14T04:03:08.627Z,46.32
2018-07-14T04:03:39.861Z,45.58
2018-07-14T04:04:11.104Z,46.01
2018-07-14T04:04:43.059Z,46.36
2018-07-14T04:05:14.286Z,46.59
2018-07-14T04:05:45.464Z,46.38
2018-07-14T04:06:16.651Z,46.74
2018-07-14T04:06:47.885Z,48.17
2018-07-14T04:07:19.146Z,47.28
2018-07-14T04:07:50.389Z,49.18
2018-07-14T04:08:21.584Z,49.08
2018-07-14T04:08:52.760Z,50.40
2018-07-14T04:09:23.942Z,50.57
2018-07-14T04:09:55.121Z,50.02
2018-07-14T04:10:26.412Z,49.43
2018-07-14T04:10:57.600Z,50.27
2018-07-14T04:11:28.781Z,49.17
2018-07-14T04:11:59.962Z,48.14
2018-07-14T04:12:31.205Z,47.97
2018-07-14T04:13:02.392Z,48.39
2018-07-14T04:13:34.571Z,48.24
2018-07-14T04:14:05.765Z,47.77
2018-07-14T04:14:37.019Z,46.66
2018-07-14T04:15:08.250Z,47.56
2018-07-14T04:15:39.521Z,47.05
2018-07-14T04:16:10.760Z,46.92
2018-07-14T04:16:41.953Z,47.41
2018-07-14T04:17:13.132Z,47.54
2018-07-14T04:17:44.406Z,48.66
2018-07-14T04:18:16.245Z,49.17
2018-07-14T04:18:47.481Z,49.37
2018-07-14T04:19:18.783Z,50.22
2018-07-14T04:19:50.021Z,49.65
2018-07-14T04:20:21.261Z,49.61
2018-07-14T04:20:52.529Z,48.33
2018-07-14T04:21:23.710Z,47.79
2018-07-14T04:21:54.896Z,47.75
2018-07-14T04:22:26.604Z,47.63
2018-07-14T04:22:57.817Z,46.71
2018-07-14T04:23:29.225Z,45.38
2018-07-14T04:24:00.412Z,45.86
2018-07-14T04:24:31.653Z,45.72
2018-07-14T04:25:02.856Z,46.80
2018-07-14T04:25:34.083Z,47.59
2018-07-14T04:26:05.279Z,47.75
2018-07-14T04:26:37.060Z,49.09
2018-07-14T04:27:08.297Z,47.97
2018-07-14T04:27:39.480Z,49.01
2018-07-14T04:28:10.652Z,48.84
2018-07-14T04:28:41.870Z,48.22
2018-07-14T04:29:13.109Z,47.48
2018-07-14T04:29:45.542Z,47.93
2018-07-14T04:30:16.720Z,47.29
2018-07-14T04:30:47.915Z,47.92
2018-07-14T04:31:19.694Z,47.70
2018-07-14T04:31:50.936Z,47.52
2018-07-14T04:32:22.188Z,47.43
2018-07-14T04:32:53.408Z,48.50
2018-07-14T04:33:24.604Z,48.60
2018-07-14T04:33:55.781Z,49.12
2018-07-14T04:34:26.966Z,48.24
2018-07-14T04:34:58.250Z,47.98
2018-07-14T04:35:30.420Z,49.29
2018-07-14T04:36:01.714Z,49.22
2018-07-14T04:36:32.904Z,48.86
2018-07-14T04:37:04.087Z,48.58
2018-07-14T04:37:35.325Z,47.71
2018-07-14T04:38:06.580Z,47.32
2018-07-14T04:38:37.817Z,46.79
2018-07-14T04:39:09.081Z,45.76
2018-07-14T04:39:40.265Z,46.52
2018-07-14T04:40:11.441Z,45.39
2018-07-14T04:40:42.612Z,45.93
2018-07-14T04:41:13.798Z,45.06
2018-07-14T04:41:45.041Z,45.34
2018-07-14T04:42:16.309Z,44.24
2018-07-14T04:42:47.515Z,43.22
2018-07-14T04:43:18.761Z,44.61
2018-07-14T04:43:49.982Z,43.94
2018-07-14T04:44:21.200Z,45.29
2018-07-14T04:44:52.441Z,44.58
2018-07-14T04:45:23.685Z,44.92
2018-07-14T04:45:55.192Z,44.59
2018-07-14T04:46:26.389Z,45.33
2018-07-14T04:46:57.565Z,45.77
2018-07-14T04:47:28.794Z,46.06
2018-07-14T04:47:59.994Z,47.14
2018-07-14T04:48:31.294Z,46.27
2018-07-14T04:49:02.489Z,47.28
2018-07-14T04:49:33.680Z,47.43
2018-07-14T04:50:04.917Z,47.27
2018-07-14T04:50:36.165Z,47.40
2018-07-14T04:51:07.368Z,47.59
2018-07-14T04:51:38.609Z,47.84
2018-07-14T04:52:09.808Z,46.87
2018-07-14T04:52:41.045Z,47.26
2018-07-14T04:53:12.281Z,47.50
2018-07-14T04:53:44.265Z,46.26
2018-07-14T04:54:15.506Z,45.85
2018-07-14T04:54:46.713Z,46.39
2018-07-14T04:55:17.900Z,46.15
2018-07-14T04:55:49.084Z,45.78
2018-07-14T04:56:20.312Z,45.87
2018-07-14T04:56:51.548Z,45.51
2018-07-14T04:57:22.752Z,45.67
2018-07-14T04:57:53.924Z,45.21
2018-07-14T04:58:25.106Z,44.58
2018-07-14T04:58:56.324Z,45.34
2018-07-14T04:59:27.500Z,44.82
2018-07-14T04:59:58.689Z,43.73
2018-07-14T05:00:29.868Z,43.84
2018-07-14T05:01:01.103Z,43.08
2018-07-14T05:01:32.354Z,41.84
2018-07-14T05:02:03.536Z,41.57
2018-07-14T05:02:34.776Z,41.19
2018-07-14T05:03:05.952Z,40.20
2018-07-14T05:03:37.132Z,39.60
2018-07-14T05:04:08.369Z,39.71
2018-07-14T05:04:39.556Z,39.93
2018-07-14T05:05:10.728Z,39.60
2018-07-14T05:05:41.956Z,39.15
2018-07-14T05:06:13.188Z,38.97
2018-07-14T05:06:44.366Z,38.54
2018-07-14T05:07:15.556Z,37.78
2018-07-14T05:07:46.765Z,37.54
2018-07-14T05:08:17.931Z,37.28
2018-07-14T05:08:49.100Z,37.33
2018-07-14T05:09:20.381Z,36.33
2018-07-14T05:09:51.616Z,36.41
2018-07-14T05:10:22.809Z,36.82
2018-07-14T05:10:53.998Z,36.78
2018-07-14T05:11:25.224Z,36.50
2018-07-14T05:11:57.139Z,36.12
2018-07-14T05:12:28.369Z,36.07
2018-07-14T05:12:59.964Z,35.39
2018-07-14T05:13:31.152Z,35.47
2018-07-14T05:14:02.372Z,34.29
2018-07-14T05:14:36.423Z,34.66
2018-07-14T05:15:07.616Z,35.39
2018-07-14T05:15:39.517Z,34.23
2018-07-14T05:16:10.700Z,34.41
2018-07-14T05:16:44.017Z,32.92
2018-07-14T05:17:15.199Z,33.60
2018-07-14T05:17:51.196Z,34.07
2018-07-14T05:18:22.394Z,34.41
2018-07-14T05:18:53.626Z,34.37
2018-07-14T05:19:25.109Z,34.68
2018-07-14T05:19:56.935Z,34.72
2018-07-14T05:20:28.196Z,35.17
2018-07-14T05:20:59.428Z,34.80
2018-07-14T05:21:30.624Z,35.30
2018-07-14T05:22:01.814Z,35.26
2018-07-14T05:22:33.047Z,35.38
2018-07-14T05:23:04.237Z,35.43
2018-07-14T05:23:35.412Z,35.41
2018-07-14T05:24:06.642Z,34.79
2018-07-14T05:24:37.828Z,34.61
2018-07-14T05:25:09.037Z,34.83
2018-07-14T05:25:40.206Z,34.67
2018-07-14T05:26:11.434Z,34.95
2018-07-14T05:26:42.612Z,35.72
2018-07-14T05:27:13.834Z,36.07
2018-07-14T05:27:45.024Z,35.87
2018-07-14T05:28:16.193Z,36.07
2018-07-14T05:28:47.362Z,35.88
2018-07-14T05:29:18.528Z,36.22
2018-07-14T05:29:49.786Z,36.14
2018-07-14T05:30:21.013Z,36.01
2018-07-14T05:30:52.181Z,36.07
2018-07-14T05:31:23.397Z,35.62
2018-07-14T05:31:54.624Z,35.82
2018-07-14T05:32:25.824Z,35.75
2018-07-14T05:32:57.083Z,35.50
2018-07-14T05:33:28.261Z,35.00
2018-07-14T05:33:59.428Z,35.24
2018-07-14T05:34:30.592Z,35.23
2018-07-14T05:35:01.802Z,35.79
2018-07-14T05:35:32.974Z,35.71
2018-07-14T05:36:04.225Z,36.05
2018-07-14T05:36:35.408Z,35.94
2018-07-14T05:37:06.629Z,35.37
2018-07-14T05:37:37.812Z,35.62
2018-07-14T05:38:08.980Z,35.68
2018-07-14T05:38:40.205Z,35.54
2018-07-14T05:39:11.416Z,35.90
2018-07-14T05:39:42.640Z,36.15
2018-07-14T05:40:13.832Z,36.03
2018-07-14T05:40:45.008Z,36.23
2018-07-14T05:41:16.180Z,36.15
2018-07-14T05:41:47.392Z,35.99
2018-07-14T05:42:18.613Z,36.58
2018-07-14T05:42:49.840Z,36.57
2018-07-14T05:43:21.011Z,36.00
2018-07-14T05:43:52.182Z,36.39
2018-07-14T05:44:23.362Z,36.79
2018-07-14T05:44:54.584Z,36.57
2018-07-14T05:45:25.762Z,36.53
2018-07-14T05:45:56.934Z,37.40
2018-07-14T05:46:28.157Z,37.26
2018-07-14T05:46:59.345Z,38.09
2018-07-14T05:47:30.577Z,36.79
2018-07-14T05:48:01.857Z,37.26
2018-07-14T05:48:33.055Z,38.21
2018-07-14T05:49:04.224Z,38.29
2018-07-14T05:49:35.443Z,38.64
2018-07-14T05:50:06.670Z,38.27
2018-07-14T05:50:37.852Z,37.08
2018-07-14T05:51:09.060Z,38.08
2018-07-14T05:51:40.233Z,38.12
2018-07-14T05:52:11.543Z,38.39
2018-07-14T05:52:42.660Z,38.58
2018-07-14T05:53:13.824Z,39.24
2018-07-14T05:53:45.054Z,39.99
2018-07-14T05:54:16.281Z,40.26
2018-07-14T05:54:47.453Z,39.12
2018-07-14T05:55:18.618Z,39.56
2018-07-14T05:55:49.788Z,39.62
2018-07-14T05:56:20.960Z,40.09
2018-07-14T05:56:52.137Z,39.70
2018-07-14T05:57:23.355Z,39.75
2018-07-14T05:57:54.577Z,39.80
2018-07-14T05:58:25.752Z,39.27
2018-07-14T05:58:56.916Z,39.40
2018-07-14T05:59:28.080Z,39.31
2018-07-14T05:59:59.253Z,39.25
2018-07-14T06:00:30.422Z,39.24
2018-07-14T06:01:01.593Z,39.60
2018-07-14T06:01:32.768Z,39.94
2018-07-14T06:02:03.941Z,39.17
2018-07-14T06:02:35.157Z,39.62
2018-07-14T06:03:06.377Z,39.34
2018-07-14T06:03:37.559Z,39.84
2018-07-14T06:04:08.726Z,39.54
2018-07-14T06:04:39.958Z,38.69
2018-07-14T06:05:11.138Z,38.97
2018-07-14T06:05:42.361Z,39.34
2018-07-14T06:06:13.548Z,39.88
2018-07-14T06:06:44.749Z,39.69
2018-07-14T06:07:15.969Z,40.46
2018-07-14T06:07:47.160Z,40.67
2018-07-14T06:08:18.343Z,40.53
2018-07-14T06:08:49.556Z,40.72
2018-07-14T06:09:20.773Z,40.48
2018-07-14T06:09:51.954Z,40.24
2018-07-14T06:10:23.176Z,40.44
2018-07-14T06:10:54.394Z,40.45
2018-07-14T06:11:25.568Z,40.52
2018-07-14T06:11:56.732Z,40.69
2018-07-14T06:12:27.949Z,39.95
2018-07-14T06:12:59.124Z,40.41
2018-07-14T06:13:30.337Z,41.06
2018-07-14T06:14:01.610Z,41.02
2018-07-14T06:14:32.787Z,41.09
2018-07-14T06:15:04.013Z,40.85
2018-07-14T06:15:35.240Z,40.34
2018-07-14T06:16:06.473Z,40.45
2018-07-14T06:16:37.666Z,41.10
2018-07-14T06:17:08.879Z,40.79
2018-07-14T06:17:40.038Z,40.55
2018-07-14T06:18:11.326Z,41.16
2018-07-14T06:18:42.524Z,41.92
2018-07-14T06:19:13.697Z,41.28
2018-07-14T06:19:44.883Z,41.83
2018-07-14T06:20:16.118Z,41.49
2018-07-14T06:20:47.295Z,41.38
2018-07-14T06:21:18.474Z,41.19
2018-07-14T06:21:49.650Z,41.78
2018-07-14T06:22:20.832Z,41.90
2018-07-14T06:22:52.017Z,42.00
2018-07-14T06:23:23.196Z,41.06
2018-07-14T06:23:54.366Z,40.83
2018-07-14T06:24:25.541Z,40.65
2018-07-14T06:24:56.754Z,39.96
2018-07-14T06:25:27.973Z,40.89
2018-07-14T06:25:59.148Z,41.31
2018-07-14T06:26:30.320Z,40.72
2018-07-14T06:27:01.546Z,40.61
2018-07-14T06:27:32.777Z,40.77
2018-07-14T06:28:03.957Z,40.48
2018-07-14T06:28:35.185Z,41.17
2018-07-14T06:29:06.461Z,41.19
2018-07-14T06:29:37.701Z,40.86
2018-07-14T06:30:08.926Z,41.20
2018-07-14T06:30:40.112Z,41.54
2018-07-14T06:31:11.301Z,41.62
2018-07-14T06:31:42.515Z,41.26
2018-07-14T06:32:13.743Z,40.44
2018-07-14T06:32:44.920Z,40.59
2018-07-14T06:33:16.094Z,40.29
2018-07-14T06:33:47.260Z,39.74
2018-07-14T06:34:18.483Z,40.00
2018-07-14T06:34:49.757Z,40.19
2018-07-14T06:35:20.937Z,38.68
2018-07-14T06:35:52.177Z,39.83
2018-07-14T06:36:23.357Z,39.95
2018-07-14T06:36:54.577Z,39.98
2018-07-14T06:37:25.810Z,39.62
2018-07-14T06:37:56.998Z,39.15
2018-07-14T06:38:28.226Z,38.47
2018-07-14T06:38:59.430Z,38.84
2018-07-14T06:39:30.657Z,39.02
2018-07-14T06:40:01.877Z,38.34
2018-07-14T06:40:33.044Z,39.49
2018-07-14T06:41:04.227Z,39.36
2018-07-14T06:41:35.403Z,40.09
2018-07-14T06:42:06.615Z,40.33
2018-07-14T06:42:37.788Z,40.26
2018-07-14T06:43:09.018Z,39.74
2018-07-14T06:43:40.208Z,40.35
2018-07-14T06:44:11.441Z,39.37
2018-07-14T06:44:42.691Z,39.71